createdAt,value
2023-01-03T05:00:40.087Z,96.43
2023-01-03T05:01:40.008Z,96.47
2023-01-03T05:02:39.910Z,96.27
2023-01-03T05:03:39.883Z,96.78
2023-01-03T05:04:39.952Z,96.37
2023-01-03T05:05:39.863Z,96.64
2023-01-03T05:06:39.851Z,96.78
2023-01-03T05:07:39.835Z,96.68
2023-01-03T05:08:39.810Z,96.22
2023-01-03T05:09:39.820Z,96.12
2023-01-03T05:10:39.796Z,96.17
2023-01-03T05:11:39.793Z,95.14
2023-01-03T05:12:39.812Z,94.62
2023-01-03T05:13:39.765Z,94.93
2023-01-03T05:14:39.750Z,94.83
2023-01-03T05:15:39.734Z,94.52
2023-01-03T05:16:39.830Z,94.21
2023-01-03T05:17:39.737Z,94.11
2023-01-03T05:18:39.726Z,93.80
2023-01-03T05:19:43.824Z,93.86
2023-01-03T05:20:39.697Z,94.48
2023-01-03T05:21:39.692Z,93.76
2023-01-03T05:22:39.684Z,94.21
2023-01-03T05:23:39.650Z,94.17
2023-01-03T05:24:39.638Z,94.27
2023-01-03T05:25:39.678Z,93.65
2023-01-03T05:26:39.633Z,93.86
2023-01-03T05:27:39.632Z,94.07
2023-01-03T05:28:39.590Z,93.96
2023-01-03T05:29:39.603Z,94.37
2023-01-03T05:30:39.584Z,94.37
2023-01-03T05:31:39.603Z,93.65
2023-01-03T05:32:39.577Z,93.44
2023-01-03T05:33:39.586Z,94.17
2023-01-03T05:34:39.550Z,94.07
2023-01-03T05:35:39.522Z,93.76
2023-01-03T05:36:39.524Z,93.80
2023-01-03T05:37:39.488Z,93.49
2023-01-03T05:38:39.497Z,93.24
2023-01-03T05:39:39.476Z,92.97
2023-01-03T05:40:41.588Z,93.08
2023-01-03T05:41:39.471Z,93.39
2023-01-03T05:42:39.452Z,93.29
2023-01-03T05:43:39.443Z,92.77
2023-01-03T05:44:39.443Z,92.97
2023-01-03T05:45:39.439Z,93.18
2023-01-03T05:46:39.431Z,94.05
2023-01-03T05:47:39.387Z,93.54
2023-01-03T05:48:39.491Z,93.43
2023-01-03T05:49:39.378Z,92.92
2023-01-03T05:50:39.360Z,93.33
2023-01-03T05:51:39.346Z,93.84
2023-01-03T05:52:39.370Z,93.12
2023-01-03T05:53:39.319Z,93.54
2023-01-03T05:54:39.329Z,92.92
2023-01-03T05:55:39.292Z,93.02
2023-01-03T05:56:39.284Z,92.61
2023-01-03T05:57:39.273Z,93.02
2023-01-03T05:58:39.278Z,92.71
2023-01-03T05:59:39.282Z,92.71
2023-01-03T06:00:39.247Z,93.06
2023-01-03T06:01:39.326Z,93.06
2023-01-03T06:02:39.258Z,93.06
2023-01-03T06:03:39.209Z,92.82
2023-01-03T06:04:39.370Z,92.76
2023-01-03T06:05:43.240Z,92.65
2023-01-03T06:06:40.199Z,92.92
2023-01-03T06:07:39.169Z,92.86
2023-01-03T06:08:39.151Z,93.06
2023-01-03T06:09:39.167Z,93.06
2023-01-03T06:10:39.156Z,92.96
2023-01-03T06:11:39.140Z,92.55
2023-01-03T06:12:39.111Z,92.03
2023-01-03T06:13:39.104Z,92.24
2023-01-03T06:14:39.089Z,92.34
2023-01-03T06:15:39.080Z,92.34
2023-01-03T06:16:39.122Z,92.14
2023-01-03T06:17:39.076Z,92.55
2023-01-03T06:18:39.068Z,92.55
2023-01-03T06:19:39.036Z,92.55
2023-01-03T06:20:39.055Z,92.18
2023-01-03T06:21:39.007Z,92.90
2023-01-03T06:22:39.026Z,92.59
2023-01-03T06:23:38.987Z,92.96
2023-01-03T06:24:39.009Z,93.11
2023-01-03T06:25:38.991Z,93.01
2023-01-03T06:26:38.974Z,92.80
2023-01-03T06:27:38.954Z,92.90
2023-01-03T06:28:38.961Z,93.11
2023-01-03T06:29:38.967Z,93.11
2023-01-03T06:30:38.993Z,92.18
2023-01-03T06:31:38.900Z,92.38
2023-01-03T06:32:38.911Z,93.35
2023-01-03T06:33:38.895Z,93.21
2023-01-03T06:34:38.876Z,93.11
2023-01-03T06:35:38.863Z,92.74
2023-01-03T06:36:38.861Z,92.80
2023-01-03T06:37:38.835Z,93.11
2023-01-03T06:38:38.852Z,92.74
2023-01-03T06:39:38.834Z,92.80
2023-01-03T06:40:45.474Z,92.94
2023-01-03T06:41:39.813Z,93.01
2023-01-03T06:42:38.802Z,93.05
2023-01-03T06:43:38.768Z,93.05
2023-01-03T06:44:38.764Z,93.35
2023-01-03T06:45:38.754Z,93.66
2023-01-03T06:46:38.779Z,94.08
2023-01-03T06:47:38.721Z,93.98
2023-01-03T06:48:38.715Z,94.02
2023-01-03T06:49:38.717Z,94.02
2023-01-03T06:50:38.720Z,93.91
2023-01-03T06:51:38.700Z,93.91
2023-01-03T06:52:38.713Z,94.64
2023-01-03T06:53:38.677Z,93.91
2023-01-03T06:54:38.662Z,94.53
2023-01-03T06:55:38.649Z,94.37
2023-01-03T06:56:38.633Z,94.27
2023-01-03T06:57:38.635Z,93.96
2023-01-03T06:58:38.617Z,94.27
2023-01-03T06:59:38.629Z,94.27
2023-01-03T07:00:38.606Z,94.99
2023-01-03T07:01:38.734Z,94.37
2023-01-03T07:02:38.787Z,94.68
2023-01-03T07:03:38.559Z,94.68
2023-01-03T07:04:38.612Z,94.89
2023-01-03T07:05:38.532Z,94.99
2023-01-03T07:06:38.531Z,94.78
2023-01-03T07:07:38.536Z,94.89
2023-01-03T07:08:44.159Z,94.72
2023-01-03T07:09:39.502Z,94.72
2023-01-03T07:10:38.484Z,94.72
2023-01-03T07:11:38.467Z,94.78
2023-01-03T07:12:38.500Z,94.52
2023-01-03T07:13:38.444Z,95.24
2023-01-03T07:14:38.476Z,95.14
2023-01-03T07:15:38.483Z,94.82
2023-01-03T07:16:38.451Z,94.62
2023-01-03T07:17:38.441Z,95.03
2023-01-03T07:18:38.394Z,95.18
2023-01-03T07:19:38.394Z,95.45
2023-01-03T07:20:38.400Z,95.49
2023-01-03T07:21:38.367Z,96.11
2023-01-03T07:22:38.355Z,96.01
2023-01-03T07:23:38.360Z,96.21
2023-01-03T07:24:38.365Z,96.42
2023-01-03T07:25:38.328Z,96.31
2023-01-03T07:26:38.322Z,96.11
2023-01-03T07:27:38.315Z,96.31
2023-01-03T07:28:38.308Z,95.90
2023-01-03T07:29:38.303Z,96.42
2023-01-03T07:30:38.264Z,96.21
2023-01-03T07:31:38.287Z,96.21
2023-01-03T07:32:38.252Z,96.31
2023-01-03T07:33:38.235Z,96.31
2023-01-03T07:34:38.237Z,96.36
2023-01-03T07:35:38.232Z,96.15
2023-01-03T07:36:38.195Z,96.05
2023-01-03T07:37:38.183Z,95.95
2023-01-03T07:38:38.181Z,96.26
2023-01-03T07:39:38.179Z,95.84
2023-01-03T07:40:38.184Z,96.15
2023-01-03T07:41:38.144Z,95.95
2023-01-03T07:42:38.146Z,96.77
2023-01-03T07:43:38.155Z,96.36
2023-01-03T07:44:38.119Z,96.36
2023-01-03T07:45:38.122Z,96.56
2023-01-03T07:46:38.209Z,96.88
2023-01-03T07:47:38.078Z,96.67
2023-01-03T07:48:38.080Z,97.08
2023-01-03T07:49:38.063Z,97.29
2023-01-03T07:50:38.043Z,97.08
2023-01-03T07:51:38.066Z,97.29
2023-01-03T07:52:38.045Z,96.88
2023-01-03T07:53:38.016Z,96.88
2023-01-03T07:54:38.016Z,96.88
2023-01-03T07:55:37.989Z,96.98
2023-01-03T07:56:38.010Z,96.67
2023-01-03T07:57:37.994Z,96.62
2023-01-03T07:58:37.977Z,96.77
2023-01-03T07:59:37.970Z,96.77
2023-01-03T08:00:37.940Z,96.77
2023-01-03T08:01:38.156Z,96.98
2023-01-03T08:02:38.098Z,96.88
2023-01-03T08:03:37.905Z,97.19
2023-01-03T08:04:38.008Z,96.98
2023-01-03T08:05:37.892Z,97.08
2023-01-03T08:06:37.876Z,97.08
2023-01-03T08:07:37.889Z,96.88
2023-01-03T08:08:37.845Z,97.19
2023-01-03T08:09:37.865Z,96.98
2023-01-03T08:10:37.844Z,97.19
2023-01-03T08:11:37.835Z,97.19
2023-01-03T08:12:37.814Z,97.19
2023-01-03T08:13:37.797Z,97.14
2023-01-03T08:14:37.798Z,96.62
2023-01-03T08:15:37.843Z,96.73
2023-01-03T08:16:37.805Z,97.04
2023-01-03T08:17:37.754Z,97.25
2023-01-03T08:18:37.741Z,97.45
2023-01-03T08:19:43.546Z,97.55
2023-01-03T08:20:38.712Z,97.55
2023-01-03T08:21:37.723Z,97.66
2023-01-03T08:22:37.686Z,97.34
2023-01-03T08:23:37.687Z,97.55
2023-01-03T08:24:37.687Z,97.34
2023-01-03T08:25:37.665Z,98.07
2023-01-03T08:26:37.662Z,97.45
2023-01-03T08:27:37.651Z,97.76
2023-01-03T08:28:37.662Z,97.97
2023-01-03T08:29:37.625Z,97.61
2023-01-03T08:30:37.603Z,97.92
2023-01-03T08:31:37.687Z,97.82
2023-01-03T08:32:37.583Z,98.07
2023-01-03T08:33:37.579Z,97.82
2023-01-03T08:34:37.582Z,98.13
2023-01-03T08:35:37.575Z,97.92
2023-01-03T08:36:37.563Z,98.13
2023-01-03T08:37:37.529Z,98.23
2023-01-03T08:38:37.516Z,97.92
2023-01-03T08:39:37.524Z,98.13
2023-01-03T08:40:41.870Z,98.19
2023-01-03T08:41:38.488Z,97.77
2023-01-03T08:42:37.474Z,97.77
2023-01-03T08:43:37.484Z,98.14
2023-01-03T08:44:37.487Z,97.83
2023-01-03T08:45:37.444Z,97.42
2023-01-03T08:46:37.485Z,97.31
2023-01-03T08:47:37.441Z,97.06
2023-01-03T08:48:37.436Z,96.75
2023-01-03T08:49:37.401Z,96.34
2023-01-03T08:50:37.391Z,96.34
2023-01-03T08:51:37.384Z,95.99
2023-01-03T08:52:37.376Z,95.78
2023-01-03T08:53:37.433Z,95.58
2023-01-03T08:54:37.421Z,94.92
2023-01-03T08:55:37.345Z,94.30
2023-01-03T08:56:37.329Z,94.30
2023-01-03T08:57:37.327Z,94.30
2023-01-03T08:58:37.322Z,94.15
2023-01-03T08:59:37.288Z,94.46
2023-01-03T09:00:37.300Z,93.80
2023-01-03T09:01:37.390Z,92.83
2023-01-03T09:02:37.414Z,92.73
2023-01-03T09:03:37.489Z,92.07
2023-01-03T09:04:37.242Z,91.97
2023-01-03T09:05:37.223Z,91.25
2023-01-03T09:06:37.221Z,91.00
2023-01-03T09:07:37.223Z,90.28
2023-01-03T09:08:37.201Z,90.18
2023-01-03T09:09:37.209Z,89.01
2023-01-03T09:10:39.682Z,89.21
2023-01-03T09:11:38.175Z,89.42
2023-01-03T09:12:37.148Z,89.48
2023-01-03T09:13:37.171Z,88.66
2023-01-03T09:14:37.207Z,87.94
2023-01-03T09:15:37.115Z,88.51
2023-01-03T09:16:37.206Z,89.29
2023-01-03T09:17:37.134Z,88.47
2023-01-03T09:18:37.088Z,87.24
2023-01-03T09:19:37.076Z,86.98
2023-01-03T09:20:37.074Z,86.46
2023-01-03T09:21:37.074Z,86.46
2023-01-03T09:22:37.072Z,87.08
2023-01-03T09:23:37.039Z,87.18
2023-01-03T09:24:37.042Z,86.05
2023-01-03T09:25:37.783Z,86.57
2023-01-03T09:26:36.998Z,86.05
2023-01-03T09:27:37.000Z,86.46
2023-01-03T09:28:36.973Z,87.28
2023-01-03T09:29:36.993Z,85.95
2023-01-03T09:30:36.975Z,85.95
2023-01-03T09:31:40.042Z,86.15
2023-01-03T09:32:36.943Z,86.01
2023-01-03T09:33:36.922Z,85.39
2023-01-03T09:34:36.938Z,86.01
2023-01-03T09:35:36.937Z,85.39
2023-01-03T09:36:36.881Z,85.25
2023-01-03T09:37:36.901Z,85.36
2023-01-03T09:38:36.894Z,85.05
2023-01-03T09:39:36.885Z,83.98
2023-01-03T09:40:36.867Z,84.03
2023-01-03T09:41:36.876Z,84.03
2023-01-03T09:42:36.840Z,84.95
2023-01-03T09:43:36.860Z,85.25
2023-01-03T09:44:36.808Z,85.77
2023-01-03T09:45:36.847Z,85.01
2023-01-03T09:46:36.897Z,83.27
2023-01-03T09:47:36.782Z,84.19
2023-01-03T09:48:36.778Z,84.39
2023-01-03T09:49:36.777Z,83.78
2023-01-03T09:50:57.266Z,84.12
2023-01-03T09:51:37.739Z,84.44
2023-01-03T09:52:36.742Z,85.46
2023-01-03T09:53:36.730Z,85.15
2023-01-03T09:54:36.705Z,85.31
2023-01-03T09:55:36.697Z,83.98
2023-01-03T09:56:36.679Z,84.25
2023-01-03T09:57:36.678Z,84.36
2023-01-03T09:58:36.661Z,84.11
2023-01-03T09:59:36.666Z,83.19
2023-01-03T10:00:36.708Z,82.84
2023-01-03T10:01:36.710Z,84.03
2023-01-03T10:02:36.728Z,83.11
2023-01-03T10:03:36.654Z,83.07
2023-01-03T10:04:36.601Z,81.65
2023-01-03T10:05:36.594Z,81.60
2023-01-03T10:06:36.582Z,80.89
2023-01-03T10:07:36.568Z,80.28
2023-01-03T10:08:36.587Z,79.87
2023-01-03T10:09:36.556Z,80.34
2023-01-03T10:10:36.564Z,79.93
2023-01-03T10:11:36.523Z,80.04
2023-01-03T10:12:36.534Z,79.93
2023-01-03T10:13:36.503Z,79.63
2023-01-03T10:14:36.504Z,79.39
2023-01-03T10:15:36.457Z,79.08
2023-01-03T10:16:36.488Z,79.69
2023-01-03T10:17:36.457Z,79.28
2023-01-03T10:18:36.457Z,77.75
2023-01-03T10:19:36.448Z,77.75
2023-01-03T10:20:36.502Z,78.43
2023-01-03T10:21:36.409Z,79.55
2023-01-03T10:22:36.447Z,77.72
2023-01-03T10:23:36.376Z,77.72
2023-01-03T10:24:36.365Z,78.53
2023-01-03T10:25:36.408Z,77.92
2023-01-03T10:26:36.387Z,77.25
2023-01-03T10:27:36.363Z,78.47
2023-01-03T10:28:36.371Z,78.37
2023-01-03T10:29:36.314Z,79.80
2023-01-03T10:30:36.320Z,79.80
2023-01-03T10:31:36.329Z,79.69
2023-01-03T10:32:36.382Z,78.06
2023-01-03T10:33:36.252Z,78.16
2023-01-03T10:34:36.290Z,77.21
2023-01-03T10:35:36.253Z,77.86
2023-01-03T10:36:36.262Z,78.27
2023-01-03T10:37:36.462Z,77.45
2023-01-03T10:38:43.524Z,77.75
2023-01-03T10:39:37.247Z,77.45
2023-01-03T10:40:36.199Z,78.09
2023-01-03T10:41:36.220Z,78.81
2023-01-03T10:42:36.211Z,78.20
2023-01-03T10:43:36.147Z,77.38
2023-01-03T10:44:36.144Z,78.50
2023-01-03T10:45:42.728Z,78.41
2023-01-03T10:46:37.153Z,78.44
2023-01-03T10:47:36.111Z,78.81
2023-01-03T10:48:52.615Z,79.66
2023-01-03T10:49:37.132Z,79.32
2023-01-03T10:50:36.104Z,80.14
2023-01-03T10:51:42.557Z,79.52
2023-01-03T10:52:37.073Z,78.81
2023-01-03T10:53:36.069Z,78.88
2023-01-03T10:54:36.096Z,77.86
2023-01-03T10:55:36.054Z,77.55
2023-01-03T10:56:36.019Z,78.37
2023-01-03T10:57:36.020Z,78.00
2023-01-03T10:58:36.659Z,78.44
2023-01-03T10:59:35.983Z,78.85
2023-01-03T11:00:36.064Z,79.25
2023-01-03T11:01:36.111Z,80.44
2023-01-03T11:02:36.177Z,79.52
2023-01-03T11:03:36.004Z,78.00
2023-01-03T11:04:35.928Z,79.43
2023-01-03T11:05:35.922Z,77.69
2023-01-03T11:06:35.915Z,77.31
2023-01-03T11:07:35.904Z,78.13
2023-01-03T11:08:35.964Z,79.66
2023-01-03T11:09:35.866Z,79.60
2023-01-03T11:10:35.886Z,79.84
2023-01-03T11:11:35.842Z,80.87
2023-01-03T11:12:35.834Z,80.87
2023-01-03T11:13:35.907Z,81.38
2023-01-03T11:14:35.835Z,82.29
2023-01-03T11:15:38.792Z,82.20
2023-01-03T11:16:35.857Z,82.20
2023-01-03T11:17:35.810Z,81.79
2023-01-03T11:18:35.802Z,82.34
2023-01-03T11:19:35.769Z,82.84
2023-01-03T11:20:35.796Z,82.91
2023-01-03T11:21:35.737Z,82.91
2023-01-03T11:22:37.961Z,83.32
2023-01-03T11:23:35.765Z,82.23
2023-01-03T11:24:35.776Z,82.75
2023-01-03T11:25:35.817Z,83.36
2023-01-03T11:26:35.680Z,83.50
2023-01-03T11:27:35.739Z,83.33
2023-01-03T11:28:36.220Z,84.01
2023-01-03T11:29:35.996Z,83.91
2023-01-03T11:30:35.766Z,83.60
2023-01-03T11:31:35.795Z,84.01
2023-01-03T11:32:35.677Z,84.01
2023-01-03T11:33:36.081Z,84.42
2023-01-03T11:35:11.609Z,84.72
2023-01-03T11:35:36.973Z,84.72
2023-01-03T11:36:35.794Z,84.01
2023-01-03T11:37:35.603Z,85.34
2023-01-03T11:38:35.596Z,84.05
2023-01-03T11:39:35.603Z,83.70
2023-01-03T11:40:35.590Z,83.70
2023-01-03T11:41:35.513Z,83.66
2023-01-03T11:42:35.508Z,83.39
2023-01-03T11:43:35.490Z,83.76
2023-01-03T11:44:35.524Z,83.60
2023-01-03T11:45:35.534Z,84.11
2023-01-03T11:46:35.589Z,83.39
2023-01-03T11:47:35.465Z,83.50
2023-01-03T11:48:35.447Z,83.29
2023-01-03T11:49:35.445Z,82.57
2023-01-03T11:50:35.431Z,81.96
2023-01-03T11:51:35.403Z,81.41
2023-01-03T11:52:35.418Z,80.69
2023-01-03T11:53:35.395Z,81.31
2023-01-03T11:54:35.403Z,80.08
2023-01-03T11:55:35.362Z,81.31
2023-01-03T11:56:35.408Z,81.41
2023-01-03T11:57:35.348Z,81.17
2023-01-03T11:58:35.334Z,80.29
2023-01-03T11:59:35.336Z,79.64
2023-01-03T12:00:35.339Z,80.69
2023-01-03T12:01:39.303Z,79.98
2023-01-03T12:02:35.336Z,79.98
2023-01-03T12:03:35.446Z,79.74
2023-01-03T12:04:35.410Z,78.96
2023-01-03T12:05:35.277Z,79.16
2023-01-03T12:06:35.257Z,79.47
2023-01-03T12:07:47.748Z,79.57
2023-01-03T12:08:36.219Z,79.47
2023-01-03T12:09:35.205Z,79.68
2023-01-03T12:10:35.221Z,79.98
2023-01-03T12:11:35.182Z,79.98
2023-01-03T12:12:35.211Z,79.88
2023-01-03T12:13:35.166Z,79.37
2023-01-03T12:14:35.170Z,79.78
2023-01-03T12:15:35.234Z,79.88
2023-01-03T12:16:35.192Z,79.68
2023-01-03T12:17:35.144Z,79.78
2023-01-03T12:18:35.116Z,79.47
2023-01-03T12:19:35.128Z,79.68
2023-01-03T12:20:35.087Z,80.39
2023-01-03T12:21:35.092Z,80.19
2023-01-03T12:22:35.096Z,80.39
2023-01-03T12:23:35.063Z,80.19
2023-01-03T12:24:35.080Z,80.08
2023-01-03T12:25:35.034Z,80.69
2023-01-03T12:26:35.023Z,80.80
2023-01-03T12:27:35.034Z,80.29
2023-01-03T12:28:35.013Z,80.39
2023-01-03T12:29:34.988Z,80.19
2023-01-03T12:30:34.980Z,79.78
2023-01-03T12:31:35.057Z,79.78
2023-01-03T12:32:35.048Z,80.19
2023-01-03T12:33:34.947Z,79.16
2023-01-03T12:34:34.944Z,78.75
2023-01-03T12:35:34.958Z,79.78
2023-01-03T12:36:34.923Z,79.88
2023-01-03T12:37:34.916Z,78.86
2023-01-03T12:38:34.901Z,78.65
2023-01-03T12:39:34.893Z,79.78
2023-01-03T12:40:34.915Z,79.68
2023-01-03T12:41:34.858Z,79.68
2023-01-03T12:42:34.847Z,79.68
2023-01-03T12:43:34.826Z,80.08
2023-01-03T12:44:34.837Z,79.98
2023-01-03T12:45:34.983Z,79.68
2023-01-03T12:46:34.845Z,79.68
2023-01-03T12:47:34.791Z,79.98
2023-01-03T12:48:34.818Z,79.78
2023-01-03T12:49:34.776Z,79.57
2023-01-03T12:50:34.778Z,79.98
2023-01-03T12:51:34.760Z,79.68
2023-01-03T12:52:34.767Z,79.57
2023-01-03T12:53:34.723Z,78.34
2023-01-03T12:54:34.717Z,79.06
2023-01-03T12:55:34.705Z,78.45
2023-01-03T12:56:34.715Z,78.86
2023-01-03T12:57:34.689Z,78.75
2023-01-03T12:58:39.218Z,78.96
2023-01-03T12:59:35.667Z,78.75
2023-01-03T13:00:34.683Z,78.86
2023-01-03T13:01:34.809Z,78.96
2023-01-03T13:02:35.071Z,79.16
2023-01-03T13:03:34.737Z,78.04
2023-01-03T13:04:34.644Z,78.14
2023-01-03T13:05:34.631Z,78.75
2023-01-03T13:06:34.582Z,79.16
2023-01-03T13:07:34.594Z,79.68
2023-01-03T13:08:34.654Z,81.01
2023-01-03T13:09:34.563Z,80.35
2023-01-03T13:10:35.390Z,79.43
2023-01-03T13:11:34.565Z,78.72
2023-01-03T13:12:34.529Z,78.41
2023-01-03T13:13:34.536Z,78.31
2023-01-03T13:14:34.504Z,78.34
2023-01-03T13:15:37.214Z,78.24
2023-01-03T13:16:34.629Z,78.24
2023-01-03T13:17:34.479Z,78.55
2023-01-03T13:18:34.461Z,78.34
2023-01-03T13:19:34.445Z,77.94
2023-01-03T13:20:34.459Z,78.45
2023-01-03T13:21:34.414Z,78.55
2023-01-03T13:22:34.504Z,78.96
2023-01-03T13:23:34.398Z,78.55
2023-01-03T13:24:34.421Z,78.55
2023-01-03T13:25:34.382Z,78.49
2023-01-03T13:26:34.374Z,78.45
2023-01-03T13:27:34.352Z,78.96
2023-01-03T13:28:34.417Z,79.27
2023-01-03T13:29:34.359Z,79.16
2023-01-03T13:30:34.335Z,79.37
2023-01-03T13:31:34.460Z,78.65
2023-01-03T13:32:38.253Z,78.24
2023-01-03T13:33:34.300Z,78.55
2023-01-03T13:34:34.287Z,78.96
2023-01-03T13:35:34.274Z,78.34
2023-01-03T13:36:34.263Z,79.06
2023-01-03T13:37:34.284Z,79.37
2023-01-03T13:38:34.237Z,78.65
2023-01-03T13:39:34.240Z,79.68
2023-01-03T13:41:15.537Z,79.57
2023-01-03T13:41:35.212Z,78.14
2023-01-03T13:42:34.214Z,78.96
2023-01-03T13:43:39.546Z,79.57
2023-01-03T13:44:35.175Z,79.68
2023-01-03T13:45:34.169Z,78.55
2023-01-03T13:46:34.233Z,79.06
2023-01-03T13:47:34.149Z,78.96
2023-01-03T13:48:34.178Z,78.65
2023-01-03T13:49:34.119Z,78.55
2023-01-03T13:50:34.105Z,78.14
2023-01-03T13:51:34.117Z,79.37
2023-01-03T13:52:34.098Z,78.55
2023-01-03T13:53:34.075Z,78.75
2023-01-03T13:54:34.089Z,79.47
2023-01-03T13:55:34.052Z,78.65
2023-01-03T13:56:34.062Z,78.75
2023-01-03T13:57:34.023Z,79.37
2023-01-03T13:58:34.013Z,78.75
2023-01-03T13:59:34.044Z,78.65
2023-01-03T14:00:34.016Z,77.94
2023-01-03T14:01:34.090Z,78.55
2023-01-03T14:02:34.172Z,78.14
2023-01-03T14:03:34.161Z,78.96
2023-01-03T14:04:33.974Z,79.16
2023-01-03T14:05:33.963Z,78.14
2023-01-03T14:06:33.959Z,78.34
2023-01-03T14:07:33.921Z,78.75
2023-01-03T14:08:35.769Z,78.24
2023-01-03T14:09:33.891Z,78.96
2023-01-03T14:10:33.912Z,78.75
2023-01-03T14:11:33.885Z,79.88
2023-01-03T14:12:33.862Z,79.57
2023-01-03T14:13:33.879Z,79.00
2023-01-03T14:14:33.857Z,78.96
2023-01-03T14:15:33.848Z,78.24
2023-01-03T14:16:33.875Z,78.69
2023-01-03T14:17:33.813Z,78.89
2023-01-03T14:18:33.836Z,79.20
2023-01-03T14:19:33.804Z,79.57
2023-01-03T14:20:33.806Z,79.71
2023-01-03T14:21:33.785Z,79.30
2023-01-03T14:22:33.755Z,79.50
2023-01-03T14:23:59.823Z,80.22
2023-01-03T14:24:34.760Z,79.50
2023-01-03T14:25:33.727Z,80.22
2023-01-03T14:26:33.732Z,80.22
2023-01-03T14:27:33.716Z,80.22
2023-01-03T14:28:33.767Z,80.63
2023-01-03T14:29:33.676Z,78.59
2023-01-03T14:30:33.662Z,78.31
2023-01-03T14:31:33.782Z,78.52
2023-01-03T14:32:34.869Z,78.63
2023-01-03T14:33:33.649Z,79.03
2023-01-03T14:34:33.630Z,78.21
2023-01-03T14:35:33.613Z,77.60
2023-01-03T14:36:33.635Z,77.80
2023-01-03T14:37:33.584Z,77.91
2023-01-03T14:38:33.591Z,77.70
2023-01-03T14:40:03.425Z,77.80
2023-01-03T14:41:03.412Z,77.70
2023-01-03T14:42:03.408Z,77.60
2023-01-03T14:43:03.431Z,79.96
2023-01-03T14:44:03.385Z,79.44
2023-01-03T14:45:03.386Z,78.63
2023-01-03T14:46:03.382Z,78.31
2023-01-03T14:47:03.376Z,77.60
2023-01-03T14:48:03.324Z,77.50
2023-01-03T14:49:04.109Z,77.50
2023-01-03T14:50:03.338Z,77.80
2023-01-03T14:51:03.318Z,76.20
2023-01-03T14:52:03.293Z,77.53
2023-01-03T14:53:03.285Z,76.98
2023-01-03T14:54:03.287Z,76.06
2023-01-03T14:55:04.425Z,76.10
2023-01-03T14:56:03.275Z,75.69
2023-01-03T14:57:03.237Z,74.87
2023-01-03T14:58:03.240Z,74.97
2023-01-03T14:59:03.243Z,74.46
2023-01-03T15:00:03.217Z,74.77
2023-01-03T15:01:03.255Z,74.66
2023-01-03T15:02:03.422Z,74.46
2023-01-03T15:03:03.376Z,74.77
2023-01-03T15:04:03.162Z,74.56
2023-01-03T15:05:03.149Z,74.46
2023-01-03T15:06:03.139Z,75.38
2023-01-03T15:07:09.646Z,75.82
2023-01-03T15:08:04.145Z,75.07
2023-01-03T15:09:03.096Z,74.70
2023-01-03T15:10:03.199Z,74.90
2023-01-03T15:11:03.066Z,74.70
2023-01-03T15:12:03.076Z,75.42
2023-01-03T15:13:05.232Z,75.82
2023-01-03T15:14:03.119Z,75.11
2023-01-03T15:15:03.107Z,74.90
2023-01-03T15:16:03.098Z,76.34
2023-01-03T15:17:03.069Z,76.24
2023-01-03T15:18:03.030Z,75.21
2023-01-03T15:19:03.030Z,75.93
2023-01-03T15:20:03.048Z,76.17
2023-01-03T15:21:02.957Z,75.86
2023-01-03T15:22:03.015Z,75.31
2023-01-03T15:23:02.943Z,75.86
2023-01-03T15:24:02.943Z,76.34
2023-01-03T15:25:02.973Z,76.07
2023-01-03T15:26:02.915Z,76.17
2023-01-03T15:27:02.910Z,76.27
2023-01-03T15:28:02.932Z,75.66
2023-01-03T15:29:02.892Z,75.86
2023-01-03T15:30:02.968Z,76.07
2023-01-03T15:31:02.853Z,76.58
2023-01-03T15:32:02.922Z,77.23
2023-01-03T15:33:02.861Z,77.03
2023-01-03T15:34:02.843Z,76.82
2023-01-03T15:35:02.829Z,77.23
2023-01-03T15:36:02.821Z,76.99
2023-01-03T15:37:02.813Z,77.95
2023-01-03T15:38:02.819Z,77.95
2023-01-03T15:39:02.796Z,78.05
2023-01-03T15:40:02.880Z,78.09
2023-01-03T15:41:02.766Z,77.95
2023-01-03T15:43:03.737Z,77.47
2023-01-03T15:44:02.818Z,77.74
2023-01-03T15:45:02.701Z,77.98
2023-01-03T15:46:02.826Z,78.16
2023-01-03T15:47:02.667Z,78.19
2023-01-03T15:48:04.958Z,78.19
2023-01-03T15:49:02.701Z,77.78
2023-01-03T15:50:02.645Z,78.29
2023-01-03T15:51:02.634Z,78.60
2023-01-03T15:52:02.639Z,79.22
2023-01-03T15:53:02.632Z,79.36
2023-01-03T15:54:02.612Z,78.60
2023-01-03T15:55:02.590Z,78.60
2023-01-03T15:56:02.622Z,79.32
2023-01-03T15:57:02.571Z,78.53
2023-01-03T15:58:02.573Z,78.81
2023-01-03T15:59:02.541Z,78.91
2023-01-03T16:00:02.577Z,79.22
2023-01-03T16:01:02.595Z,80.24
2023-01-03T16:02:02.752Z,80.38
2023-01-03T16:03:02.675Z,80.07
2023-01-03T16:04:02.526Z,80.58
2023-01-03T16:05:02.483Z,81.82
2023-01-03T16:06:02.471Z,81.71
2023-01-03T16:07:02.450Z,81.92
2023-01-03T16:08:02.497Z,82.27
2023-01-03T16:09:02.479Z,82.37
2023-01-03T16:10:02.429Z,82.68
2023-01-03T16:11:02.437Z,82.89
2023-01-03T16:12:02.421Z,83.64
2023-01-03T16:13:02.391Z,83.54
2023-01-03T16:14:02.388Z,84.56
2023-01-03T16:15:02.383Z,84.20
2023-01-03T16:16:02.503Z,84.09
2023-01-03T16:17:02.421Z,84.91
2023-01-03T16:18:02.342Z,85.53
2023-01-03T16:19:02.327Z,85.26
2023-01-03T16:20:02.332Z,85.36
2023-01-03T16:21:02.327Z,85.16
2023-01-03T16:22:33.293Z,85.51
2023-01-03T16:23:03.322Z,85.20
2023-01-03T16:24:02.300Z,85.20
2023-01-03T16:25:02.289Z,85.41
2023-01-03T16:26:02.278Z,84.27
2023-01-03T16:27:02.247Z,85.82
2023-01-03T16:28:05.742Z,85.51
2023-01-03T16:29:03.251Z,85.82
2023-01-03T16:30:02.216Z,85.51
2023-01-03T16:31:02.257Z,85.51
2023-01-03T16:32:02.308Z,85.30
2023-01-03T16:33:02.193Z,85.30
2023-01-03T16:34:02.175Z,85.51
2023-01-03T16:35:02.172Z,85.10
2023-01-03T16:36:02.158Z,85.55
2023-01-03T16:37:02.156Z,86.06
2023-01-03T16:38:02.154Z,86.02
2023-01-03T16:39:02.142Z,86.33
2023-01-03T16:40:02.111Z,86.33
2023-01-03T16:41:02.124Z,86.13
2023-01-03T16:42:02.083Z,86.13
2023-01-03T16:43:02.114Z,86.43
2023-01-03T16:44:02.100Z,86.33
2023-01-03T16:45:02.063Z,86.37
2023-01-03T16:46:02.098Z,86.37
2023-01-03T16:47:02.033Z,86.68
2023-01-03T16:48:02.042Z,87.09
2023-01-03T16:49:02.012Z,86.99
2023-01-03T16:50:02.049Z,86.88
2023-01-03T16:51:01.978Z,87.75
2023-01-03T16:52:01.970Z,87.65
2023-01-03T16:53:01.961Z,86.82
2023-01-03T16:54:01.984Z,87.03
2023-01-03T16:55:01.939Z,87.24
2023-01-03T16:56:01.968Z,86.82
2023-01-03T16:57:01.928Z,86.93
2023-01-03T16:58:01.916Z,86.21
2023-01-03T16:59:01.892Z,86.31
2023-01-03T17:00:01.893Z,86.21
2023-01-03T17:01:01.945Z,86.00
2023-01-03T17:02:02.067Z,86.10
2023-01-03T17:03:02.131Z,86.27
2023-01-03T17:04:01.946Z,85.65
2023-01-03T17:05:01.823Z,85.24
2023-01-03T17:06:01.874Z,85.55
2023-01-03T17:07:01.809Z,85.24
2023-01-03T17:08:01.801Z,84.72
2023-01-03T17:09:01.800Z,84.21
2023-01-03T17:10:01.774Z,84.31
2023-01-03T17:11:01.771Z,84.72
2023-01-03T17:12:01.770Z,84.52
2023-01-03T17:13:05.510Z,84.48
2023-01-03T17:14:02.756Z,84.07
2023-01-03T17:15:01.737Z,84.58
2023-01-03T17:16:01.749Z,83.86
2023-01-03T17:17:01.847Z,83.86
2023-01-03T17:18:01.722Z,83.35
2023-01-03T17:19:01.677Z,83.86
2023-01-03T17:20:05.225Z,84.69
2023-01-03T17:21:01.657Z,84.69
2023-01-03T17:22:01.669Z,84.79
2023-01-03T17:23:01.662Z,84.89
2023-01-03T17:24:01.618Z,83.97
2023-01-03T17:25:01.619Z,84.17
2023-01-03T17:26:01.592Z,83.65
2023-01-03T17:27:01.583Z,83.86
2023-01-03T17:28:01.595Z,84.79
2023-01-03T17:29:01.606Z,84.38
2023-01-03T17:30:01.552Z,83.76
2023-01-03T17:31:01.595Z,84.17
2023-01-03T17:32:01.580Z,84.38
2023-01-03T17:33:01.518Z,84.79
2023-01-03T17:34:01.523Z,84.58
2023-01-03T17:35:01.568Z,84.42
2023-01-03T17:36:01.510Z,84.93
2023-01-03T17:37:01.467Z,84.42
2023-01-03T17:39:02.470Z,84.58
2023-01-03T17:40:01.461Z,84.69
2023-01-03T17:41:01.447Z,84.69
2023-01-03T17:42:01.426Z,84.27
2023-01-03T17:43:01.482Z,83.86
2023-01-03T17:44:01.435Z,84.07
2023-01-03T17:45:01.379Z,84.72
2023-01-03T17:46:01.388Z,84.42
2023-01-03T17:47:01.365Z,84.48
2023-01-03T17:48:01.366Z,84.38
2023-01-03T17:49:01.389Z,84.69
2023-01-03T17:50:01.329Z,84.38
2023-01-03T17:51:01.360Z,83.45
2023-01-03T17:52:01.370Z,83.65
2023-01-03T17:53:01.298Z,83.97
2023-01-03T17:54:01.288Z,83.65
2023-01-03T17:55:01.316Z,83.55